Time;durP1;ratioP1;P1;durP2;ratioP2;P2;SDS_P1;SDS_P2;PMS_P1;PMS_P2;Temp;Humidity;BMP_temperature;BMP_pressure;BME280_temperature;BME280_humidity;BME280_pressure;Samples;Min_cycle;Max_cycle;Signal;HPM_P1;HPM_P2
2021/06/23 00:01:48;;;;;;;;;31.75;27.50;;;;;17.66;100.00;101643.69;4920630;28;45253;-66
2021/06/23 00:04:14;;;;;;;;;32.25;29.75;;;;;17.61;100.00;101628.88;4920689;28;45278;-67
2021/06/23 00:10:01;;;;;;;;;34.50;30.25;;;;;17.61;100.00;101631.50;4883131;28;1311866;-72
2021/06/23 00:12:29;;;;;;;;;32.00;29.00;;;;;17.64;100.00;101623.50;4920200;28;45391;-66
2021/06/23 00:14:55;;;;;;;;;29.50;27.00;;;;;17.65;100.00;101630.50;4921802;28;45412;-67
2021/06/23 00:17:20;;;;;;;;;33.25;27.00;;;;;17.63;100.00;101638.47;4921362;28;45380;-66
2021/06/23 00:19:46;;;;;;;;;30.50;27.75;;;;;17.60;100.00;101632.44;4921419;28;45486;-67
2021/06/23 00:22:11;;;;;;;;;29.00;26.00;;;;;17.56;100.00;101623.72;4921306;28;45306;-68
2021/06/23 00:24:36;;;;;;;;;27.25;26.25;;;;;17.65;100.00;101641.06;4921481;28;45455;-66
2021/06/23 00:27:03;;;;;;;;;27.00;25.25;;;;;17.58;100.00;101636.88;4921127;28;46391;-66
2021/06/23 00:29:28;;;;;;;;;29.50;26.50;;;;;17.61;100.00;101645.59;4921357;28;45307;-66
2021/06/23 00:31:53;;;;;;;;;36.00;25.00;;;;;17.54;100.00;101640.53;4921547;28;45385;-66
2021/06/23 00:34:21;;;;;;;;;24.75;22.75;;;;;17.49;100.00;101638.03;4921395;28;45413;-66
2021/06/23 00:40:09;;;;;;;;;24.50;22.50;;;;;17.52;100.00;101642.34;4921037;28;45723;-66
2021/06/23 00:42:35;;;;;;;;;24.75;23.25;;;;;17.52;100.00;101634.44;4921364;28;45329;-67
2021/06/23 00:45:06;;;;;;;;;31.25;28.00;;;;;17.51;100.00;101636.22;4920964;28;45569;-67
2021/06/23 00:47:33;;;;;;;;;27.00;23.50;;;;;17.39;100.00;101613.66;4919631;28;47405;-66
2021/06/23 00:49:58;;;;;;;;;24.00;23.50;;;;;17.54;100.00;101646.69;4920845;28;45319;-66
2021/06/23 00:52:24;;;;;;;;;26.00;23.00;;;;;17.52;100.00;101640.56;4920920;28;45309;-66
2021/06/23 00:54:52;;;;;;;;;28.75;27.00;;;;;17.53;100.00;101641.44;4921429;28;45364;-66
2021/06/23 00:57:18;;;;;;;;;26.75;24.00;;;;;17.55;100.00;101650.19;4920876;28;46555;-67
2021/06/23 00:59:49;;;;;;;;;31.00;23.75;;;;;17.53;100.00;101642.31;4920619;28;45335;-67
2021/06/23 01:02:17;;;;;;;;;34.00;28.75;;;;;17.37;100.00;101615.47;4920794;28;45379;-66
2021/06/23 01:04:42;;;;;;;;;31.50;26.50;;;;;17.47;100.00;101645.13;4920960;28;45576;-68
2021/06/23 01:10:32;;;;;;;;;29.50;28.00;;;;;17.37;100.00;101631.31;4920293;28;45683;-68
2021/06/23 01:13:28;;;;;;;;;29.75;26.75;;;;;17.46;100.00;101646.03;4920942;28;45396;-66
2021/06/23 01:15:55;;;;;;;;;31.50;29.00;;;;;17.39;100.00;101649.75;4919509;28;45600;-66
2021/06/23 01:18:22;;;;;;;;;32.50;27.75;;;;;17.36;100.00;101637.50;4920099;28;47072;-66
2021/06/23 01:20:49;;;;;;;;;26.25;25.50;;;;;17.40;100.00;101644.41;4920669;28;45358;-66
2021/06/23 01:23:15;;;;;;;;;34.75;29.75;;;;;17.37;100.00;101636.59;4920762;28;45257;-66
2021/06/23 01:25:41;;;;;;;;;35.50;28.75;;;;;17.37;100.00;101643.63;4920428;28;45418;-66
2021/06/23 01:28:07;;;;;;;;;29.75;27.25;;;;;17.34;100.00;101636.69;4920334;28;45426;-66
2021/06/23 01:30:33;;;;;;;;;33.50;28.00;;;;;17.35;100.00;101648.97;4920448;28;45467;-66
2021/06/23 01:33:00;;;;;;;;;28.75;23.75;;;;;17.41;100.00;101656.72;4920375;28;45415;-66
2021/06/23 01:35:29;;;;;;;;;29.50;27.00;;;;;17.39;100.00;101653.25;4920373;28;45541;-66
2021/06/23 01:37:54;;;;;;;;;28.25;24.00;;;;;17.31;100.00;101644.69;4920264;28;45690;-66
2021/06/23 01:40:20;;;;;;;;;34.75;27.50;;;;;17.31;100.00;101638.53;4920233;28;45211;-66
2021/06/23 01:42:46;;;;;;;;;33.75;28.75;;;;;17.20;100.00;101630.03;4920118;28;45331;-66
2021/06/23 01:45:13;;;;;;;;;32.75;24.25;;;;;17.33;100.00;101648.16;4920269;28;45427;-68
2021/06/23 01:47:38;;;;;;;;;26.50;24.75;;;;;17.34;100.00;101647.22;4919758;28;46171;-66
2021/06/23 01:50:04;;;;;;;;;34.50;27.50;;;;;17.33;100.00;101642.00;4919570;28;45364;-65
2021/06/23 01:55:52;;;;;;;;;32.50;29.75;;;;;17.32;100.00;101635.00;4919885;28;45388;-66
2021/06/23 01:58:19;;;;;;;;;25.00;23.25;;;;;17.34;100.00;101641.09;4919491;28;45507;-65
2021/06/23 02:01:08;;;;;;;;;28.75;27.00;;;;;17.37;100.00;101641.88;4920163;28;45380;-66
2021/06/23 02:03:47;;;;;;;;;29.25;26.25;;;;;17.40;100.00;101652.34;4920110;28;45436;-66
2021/06/23 02:06:47;;;;;;;;;26.25;26.25;;;;;17.41;100.00;101655.84;4920075;28;45581;-67
2021/06/23 02:09:40;;;;;;;;;30.50;28.75;;;;;17.40;100.00;101647.06;4919658;28;46128;-67
2021/06/23 02:12:24;;;;;;;;;31.75;27.50;;;;;17.37;100.00;101647.16;4919408;28;45336;-67
2021/06/23 02:14:51;;;;;;;;;27.50;26.00;;;;;17.36;100.00;101650.69;4919899;28;45403;-67
2021/06/23 02:17:17;;;;;;;;;28.00;24.00;;;;;17.27;100.00;101640.41;4920127;28;45281;-66
2021/06/23 02:19:45;;;;;;;;;25.00;24.00;;;;;17.33;100.00;101648.16;4919413;28;46082;-66
2021/06/23 02:22:23;;;;;;;;;31.75;25.00;;;;;17.30;100.00;101637.69;4919893;28;45844;-66
2021/06/23 02:24:52;;;;;;;;;29.50;28.00;;;;;17.28;100.00;101639.50;4918632;28;45421;-66
2021/06/23 02:27:18;;;;;;;;;32.00;27.50;;;;;17.25;100.00;101629.03;4919998;28;45214;-65
2021/06/23 02:29:46;;;;;;;;;30.50;25.25;;;;;17.27;100.00;101631.63;4919447;28;46055;-66
2021/06/23 02:32:15;;;;;;;;;26.75;24.50;;;;;17.30;100.00;101637.69;4919734;28;45444;-65
2021/06/23 02:34:42;;;;;;;;;26.00;25.00;;;;;17.33;100.00;101642.00;4919715;28;45292;-65
2021/06/23 02:37:10;;;;;;;;;23.50;21.75;;;;;17.29;100.00;101638.59;4919614;28;45440;-65
2021/06/23 02:39:37;;;;;;;;;23.50;20.25;;;;;17.26;100.00;101630.75;4919040;28;46284;-65
2021/06/23 02:42:03;;;;;;;;;22.75;21.00;;;;;17.22;100.00;101633.53;4919491;28;45461;-66
2021/06/23 02:44:29;;;;;;;;;25.50;22.25;;;;;17.12;100.00;101612.66;4919315;28;45366;-66
2021/06/23 02:46:54;;;;;;;;;25.00;22.00;;;;;17.28;100.00;101644.78;4919794;28;45375;-66
2021/06/23 02:49:20;;;;;;;;;21.25;20.25;;;;;17.03;100.00;101604.13;4919385;28;45449;-66
2021/06/23 02:51:47;;;;;;;;;21.00;18.75;;;;;17.15;100.00;101619.63;4919015;28;45364;-66
2021/06/23 02:54:14;;;;;;;;;21.50;19.00;;;;;17.05;100.00;101619.00;4919117;28;45300;-67
2021/06/23 02:56:39;;;;;;;;;26.00;22.50;;;;;17.15;100.00;101631.03;4919663;28;45273;-66
2021/06/23 02:59:05;;;;;;;;;22.00;20.50;;;;;17.15;100.00;101636.31;4919104;28;46355;-66
2021/06/23 03:01:31;;;;;;;;;20.00;18.00;;;;;17.22;100.00;101644.94;4921056;28;45617;-67
2021/06/23 03:03:57;;;;;;;;;18.50;18.50;;;;;17.14;100.00;101639.84;4922596;28;45300;-67
2021/06/23 03:06:23;;;;;;;;;23.25;21.50;;;;;17.05;100.00;101612.88;4922671;28;45407;-66
2021/06/23 03:08:49;;;;;;;;;23.75;18.50;;;;;17.26;100.00;101654.50;4922245;28;47005;-66
2021/06/23 03:11:14;;;;;;;;;20.25;19.00;;;;;17.26;100.00;101654.50;4922078;28;45328;-66
2021/06/23 03:13:40;;;;;;;;;21.00;19.50;;;;;17.26;100.00;101651.88;4922522;28;45701;-67
2021/06/23 03:16:05;;;;;;;;;23.50;18.50;;;;;17.11;100.00;101628.53;4922641;28;45460;-66
2021/06/23 03:18:34;;;;;;;;;21.00;19.75;;;;;17.26;100.00;101654.50;4922212;28;46216;-66
2021/06/23 03:21:03;;;;;;;;;23.50;19.00;;;;;17.07;100.00;101624.25;4922461;28;45358;-66
2021/06/23 03:23:29;;;;;;;;;24.75;22.00;;;;;17.13;100.00;101626.72;4922285;28;45367;-66
2021/06/23 03:25:55;;;;;;;;;26.50;23.50;;;;;17.25;100.00;101660.69;4922405;28;45304;-67
2021/06/23 03:28:21;;;;;;;;;22.00;19.50;;;;;17.11;100.00;101628.53;4921947;28;46431;-67
2021/06/23 03:30:46;;;;;;;;;24.00;20.00;;;;;17.11;100.00;101637.31;4922404;28;45386;-66
2021/06/23 03:33:12;;;;;;;;;23.25;21.50;;;;;17.00;100.00;101623.56;4922041;28;45410;-68
2021/06/23 03:35:37;;;;;;;;;19.00;18.00;;;;;17.22;100.00;101654.66;4922196;28;45607;-69
2021/06/23 03:41:24;;;;;;;;;23.50;21.00;;;;;17.20;100.00;101667.88;4921901;28;45717;-67
2021/06/23 03:43:49;;;;;;;;;29.00;25.25;;;;;17.15;100.00;101651.28;4922216;28;45434;-68
2021/06/23 03:46:15;;;;;;;;;29.75;21.50;;;;;17.15;100.00;101649.50;4921991;28;45371;-67
2021/06/23 03:48:40;;;;;;;;;24.50;22.75;;;;;17.13;100.00;101648.69;4922100;28;46019;-66
2021/06/23 03:51:05;;;;;;;;;26.25;22.50;;;;;17.11;100.00;101645.22;4921709;28;45377;-67
2021/06/23 03:53:31;;;;;;;;;29.50;24.50;;;;;17.08;100.00;101647.09;4921876;28;45336;-67
2021/06/23 03:55:56;;;;;;;;;23.75;20.00;;;;;17.08;100.00;101655.88;4922119;28;45292;-67
2021/06/23 03:58:21;;;;;;;;;24.00;23.00;;;;;17.10;100.00;101656.69;4921728;28;46583;-67
2021/06/23 04:00:47;;;;;;;;;23.75;21.25;;;;;17.07;100.00;101653.28;4921755;28;45318;-66
2021/06/23 04:03:13;;;;;;;;;25.25;23.75;;;;;16.96;100.00;101639.47;4921577;28;45488;-67
2021/06/23 04:05:38;;;;;;;;;23.25;21.00;;;;;16.91;100.00;101629.06;4921739;28;45283;-67
2021/06/23 04:11:25;;;;;;;;;23.75;21.50;;;;;16.92;100.00;101636.06;4921644;28;45388;-67
2021/06/23 04:13:50;;;;;;;;;25.50;22.75;;;;;17.01;100.00;101653.44;4921483;28;45241;-67
2021/06/23 04:16:16;;;;;;;;;26.50;25.00;;;;;16.99;100.00;101656.13;4921870;28;45489;-67
2021/06/23 04:18:41;;;;;;;;;22.50;20.25;;;;;16.99;100.00;101656.13;4921114;28;46633;-67
2021/06/23 04:21:07;;;;;;;;;26.25;22.25;;;;;17.12;100.00;101672.47;4921095;28;45310;-67
2021/06/23 04:23:32;;;;;;;;;22.75;21.00;;;;;17.07;100.00;101672.59;4920768;28;45293;-66
2021/06/23 04:25:58;;;;;;;;;25.50;21.25;;;;;17.11;100.00;101686.56;4921134;28;45526;-66
2021/06/23 04:28:24;;;;;;;;;28.75;23.25;;;;;17.05;100.00;101665.63;4921065;28;47081;-67
2021/06/23 04:30:49;;;;;;;;;21.75;19.75;;;;;17.08;100.00;101670.81;4921462;28;45258;-66
2021/06/23 04:33:15;;;;;;;;;29.50;21.25;;;;;17.12;100.00;101677.75;4920868;28;45297;-67
2021/06/23 04:35:40;;;;;;;;;25.00;22.75;;;;;17.12;100.00;101667.19;4921198;28;45634;-66
2021/06/23 04:41:28;;;;;;;;;26.75;22.50;;;;;17.09;100.00;101670.78;4920951;28;45634;-66
2021/06/23 04:43:53;;;;;;;;;24.75;19.00;;;;;17.09;100.00;101667.28;4919657;28;45333;-66
2021/06/23 04:46:19;;;;;;;;;31.50;23.50;;;;;17.06;100.00;101673.50;4921369;28;45314;-66
2021/06/23 04:48:44;;;;;;;;;25.00;23.25;;;;;17.14;100.00;101681.22;4920716;28;46335;-67
2021/06/23 04:51:11;;;;;;;;;21.25;20.25;;;;;17.09;100.00;101677.84;4920929;28;45336;-65
2021/06/23 04:53:37;;;;;;;;;21.25;19.25;;;;;17.10;100.00;101688.34;4921190;28;45515;-66
2021/06/23 04:56:03;;;;;;;;;26.00;23.00;;;;;17.13;100.00;101700.59;4921421;28;45341;-65
2021/06/23 04:58:28;;;;;;;;;22.00;21.00;;;;;17.08;100.00;101682.25;4920581;28;46431;-65
2021/06/23 05:00:53;;;;;;;;;26.75;22.75;;;;;17.08;100.00;101679.63;4920833;28;45491;-66
2021/06/23 05:03:19;;;;;;;;;25.75;23.00;;;;;17.14;100.00;101690.00;4921045;28;45400;-66
2021/06/23 05:05:44;;;;;;;;;20.00;18.75;;;;;17.03;100.00;101675.38;4920592;28;45440;-67
2021/06/23 05:11:35;;;;;;;;;20.75;19.00;;;;;17.11;100.00;101699.78;4920348;28;45377;-65
2021/06/23 05:14:01;;;;;;;;;22.00;20.25;;;;;17.07;100.00;101690.22;4919977;28;45345;-65
2021/06/23 05:16:29;;;;;;;;;23.75;22.00;;;;;17.02;100.00;101689.47;4920457;28;45361;-66
2021/06/23 05:18:54;;;;;;;;;24.75;21.25;;;;;17.02;100.00;101687.69;4919833;28;46166;-67
2021/06/23 05:21:21;;;;;;;;;27.00;22.25;;;;;17.12;100.00;101704.13;4920220;28;45273;-64
2021/06/23 05:23:46;;;;;;;;;21.50;20.50;;;;;17.14;100.00;101704.97;4918876;28;45472;-65
2021/06/23 05:26:12;;;;;;;;;25.75;21.00;;;;;17.04;100.00;101695.56;4920048;28;45360;-66
2021/06/23 05:28:37;;;;;;;;;21.00;20.00;;;;;17.11;100.00;101719.09;4920142;28;45540;-67
2021/06/23 05:31:03;;;;;;;;;22.75;22.00;;;;;17.15;100.00;101722.53;4919398;28;45530;-66
2021/06/23 05:33:28;;;;;;;;;23.25;22.25;;;;;17.03;100.00;101701.75;4919568;28;45762;-67
2021/06/23 05:35:53;;;;;;;;;22.75;19.50;;;;;17.02;100.00;101695.59;4919961;28;45481;-67
2021/06/23 05:41:40;;;;;;;;;24.75;22.50;;;;;17.16;100.00;101721.63;4919615;28;45628;-68
2021/06/23 05:44:05;;;;;;;;;22.00;19.25;;;;;17.20;100.00;101727.69;4919984;28;45312;-67
2021/06/23 05:46:31;;;;;;;;;19.50;19.50;;;;;17.20;100.00;101727.69;4918987;28;45524;-65
2021/06/23 05:48:56;;;;;;;;;26.25;21.75;;;;;17.19;100.00;101737.38;4919041;28;46563;-69
2021/06/23 05:51:22;;;;;;;;;24.00;22.00;;;;;17.15;100.00;101719.91;4918878;28;45492;-70
2021/06/23 05:53:47;;;;;;;;;25.50;22.50;;;;;17.22;100.00;101723.25;4919231;28;45342;-72
2021/06/23 05:56:14;;;;;;;;;25.50;22.75;;;;;17.19;100.00;101724.19;4919373;28;45471;-71
2021/06/23 05:58:40;;;;;;;;;24.00;23.00;;;;;17.22;100.00;101732.03;4918806;28;46780;-68
2021/06/23 06:01:06;;;;;;;;;26.00;22.50;;;;;17.12;100.00;101714.69;4919493;28;45448;-68
2021/06/23 06:03:32;;;;;;;;;27.50;23.50;;;;;17.13;100.00;101721.72;4919657;28;45250;-68
2021/06/23 06:05:58;;;;;;;;;29.00;23.00;;;;;17.14;100.00;101729.59;4919620;28;45300;-68
2021/06/23 06:11:45;;;;;;;;;22.00;20.75;;;;;17.21;100.00;101740.88;4920665;28;45573;-69
2021/06/23 06:14:10;;;;;;;;;24.50;22.25;;;;;17.22;100.00;101739.09;4919619;28;45475;-67
2021/06/23 06:16:35;;;;;;;;;26.50;23.25;;;;;17.22;100.00;101742.59;4919504;28;45536;-68
2021/06/23 06:19:01;;;;;;;;;23.25;22.75;;;;;17.20;100.00;101741.78;4918982;28;47294;-69
2021/06/23 06:21:26;;;;;;;;;30.00;23.00;;;;;17.22;100.00;101750.53;4919466;28;45253;-68
2021/06/23 06:23:52;;;;;;;;;23.25;22.00;;;;;17.23;100.00;101748.75;4919266;28;45463;-69
2021/06/23 06:26:18;;;;;;;;;26.25;23.00;;;;;17.22;100.00;101747.00;4919482;28;45469;-68
2021/06/23 06:28:44;;;;;;;;;29.50;24.50;;;;;17.19;100.00;101747.94;4919072;28;47587;-69
2021/06/23 06:31:09;;;;;;;;;28.25;23.25;;;;;17.10;100.00;101734.97;4918978;28;45340;-68
2021/06/23 06:33:35;;;;;;;;;29.75;23.75;;;;;17.14;100.00;101750.69;4919046;28;45868;-68
2021/06/23 06:36:00;;;;;;;;;23.25;21.75;;;;;17.20;100.00;101757.63;4919446;28;45383;-68
2021/06/23 06:41:47;;;;;;;;;24.00;22.00;;;;;17.28;100.00;101766.19;4918959;28;45262;-68
2021/06/23 06:44:13;;;;;;;;;33.25;26.00;;;;;17.26;100.00;101765.38;4919302;28;45384;-69
2021/06/23 06:46:38;;;;;;;;;22.25;20.00;;;;;17.26;100.00;101764.50;4918951;28;45472;-68
2021/06/23 06:49:04;;;;;;;;;22.50;20.50;;;;;17.25;100.00;101758.34;4918946;28;46499;-68
2021/06/23 06:51:31;;;;;;;;;24.25;23.25;;;;;17.29;100.00;101764.41;4918857;28;45881;-68
2021/06/23 06:57:18;;;;;;;;;31.00;24.75;;;;;17.37;100.00;101773.88;4918809;28;45420;-68
2021/06/23 06:59:43;;;;;;;;;26.00;21.75;;;;;17.35;100.00;101761.59;4918753;28;46220;-70
2021/06/23 07:02:09;;;;;;;;;25.50;21.75;;;;;17.40;100.00;101784.34;4918941;28;45320;-69
2021/06/23 07:04:34;;;;;;;;;26.75;20.50;;;;;17.38;100.00;101772.94;4918784;28;45718;-68
2021/06/23 07:07:00;;;;;;;;;29.50;24.25;;;;;17.30;100.00;101751.19;4918470;28;45425;-68
2021/06/23 07:09:25;;;;;;;;;26.75;23.25;;;;;17.45;100.00;101777.19;4918063;28;47140;-70
2021/06/23 07:11:51;;;;;;;;;26.25;23.25;;;;;17.49;100.00;101785.88;4918570;28;45301;-68
2021/06/23 07:14:18;;;;;;;;;23.75;21.50;;;;;17.50;100.00;101782.34;4918822;28;45476;-68
2021/06/23 07:16:45;;;;;;;;;25.25;22.25;;;;;17.50;100.00;101789.41;4918555;28;45669;-67
2021/06/23 07:19:11;;;;;;;;;23.00;19.75;;;;;17.47;100.00;101777.16;4918430;28;45652;-68
2021/06/23 07:21:36;;;;;;;;;23.00;21.25;;;;;17.52;100.00;101783.16;4918580;28;45375;-68
2021/06/23 07:27:25;;;;;;;;;22.25;20.00;;;;;17.58;100.00;101787.41;4918589;28;45447;-68
2021/06/23 07:29:50;;;;;;;;;27.00;24.00;;;;;17.66;100.00;101796.88;4918681;28;45413;-68
2021/06/23 07:37:14;;;;;;;;;19.00;19.00;;;;;17.67;100.00;101793.38;4918811;28;45441;-68
2021/06/23 07:39:39;;;;;;;;;23.00;20.75;;;;;17.68;100.00;101789.81;4918177;28;47088;-68
2021/06/23 07:42:07;;;;;;;;;22.50;22.25;;;;;17.70;100.00;101798.56;4917329;28;45459;-68
2021/06/23 07:47:03;;;;;;;;;22.25;20.00;;;;;17.64;100.00;101793.38;4919751;28;45585;-69
2021/06/23 07:49:31;;;;;;;;;23.50;18.25;;;;;17.64;100.00;101793.38;4920939;28;46618;-69
2021/06/23 08:13:04;;;;;;;;;22.00;19.25;;;;;17.81;100.00;101807.97;4921030;28;45516;-72
2021/06/23 08:15:32;;;;;;;;;23.00;21.00;;;;;17.81;100.00;101800.91;4920056;28;45403;-70
2021/06/23 08:17:58;;;;;;;;;20.00;17.75;;;;;17.86;100.00;101799.00;4921435;28;45426;-70
2021/06/23 08:20:25;;;;;;;;;20.25;19.25;;;;;17.99;100.00;101805.69;4920894;28;47057;-71
2021/06/23 08:22:51;;;;;;;;;20.50;19.75;;;;;17.98;100.00;101788.09;4921311;28;45480;-72
2021/06/23 08:25:16;;;;;;;;;23.75;20.25;;;;;18.07;100.00;101792.25;4921149;28;45388;-72
2021/06/23 08:27:42;;;;;;;;;25.25;21.00;;;;;18.18;100.00;101807.81;4921207;28;45459;-71
2021/06/23 08:30:10;;;;;;;;;21.75;19.75;;;;;18.19;100.00;101806.91;4920736;28;46191;-72
2021/06/23 08:32:36;;;;;;;;;22.75;21.50;;;;;18.26;100.00;101804.03;4920905;28;45738;-73
2021/06/23 08:35:03;;;;;;;;;19.75;18.50;;;;;18.22;100.00;101785.66;4921049;28;45367;-73
2021/06/23 08:37:29;;;;;;;;;21.50;18.50;;;;;18.33;100.00;101796.78;4921162;28;45366;-73
2021/06/23 08:39:54;;;;;;;;;19.75;17.75;;;;;18.43;100.00;101802.66;4920317;28;46509;-73
2021/06/23 08:42:21;;;;;;;;;16.75;13.00;;;;;18.45;100.00;101798.19;4920842;28;45432;-73
2021/06/23 08:44:47;;;;;;;;;16.00;14.00;;;;;18.54;100.00;101804.06;4920723;28;45384;-73
2021/06/23 08:47:14;;;;;;;;;15.25;14.25;;;;;18.55;100.00;101789.91;4921015;28;45368;-73
2021/06/23 08:49:43;;;;;;;;;17.50;16.75;;;;;18.57;100.00;101790.78;4920754;28;45559;-73
2021/06/23 08:52:09;;;;;;;;;19.00;16.25;;;;;18.65;100.00;101787.91;4919350;28;45519;-71
2021/06/23 08:57:58;;;;;;;;;16.00;15.00;;;;;18.82;100.00;101798.84;4919794;28;45385;-72
2021/06/23 09:00:24;;;;;;;;;14.75;13.75;;;;;18.82;100.00;101792.69;4920490;28;46847;-72
2021/06/23 09:02:50;;;;;;;;;17.50;16.00;;;;;18.84;100.00;101786.44;4920364;28;45690;-72
2021/06/23 09:05:18;;;;;;;;;16.75;15.75;;;;;18.82;100.00;101777.69;4920762;28;45483;-72
2021/06/23 09:07:55;;;;;;;;;17.50;16.00;;;;;18.96;100.00;101793.09;4920788;28;45398;-73
2021/06/23 09:10:23;;;;;;;;;14.00;14.00;;;;;18.97;100.00;101802.75;4920499;28;45629;-73
2021/06/23 09:13:01;;;;;;;;;20.75;18.00;;;;;18.98;100.00;101796.56;4920191;28;45594;-73
2021/06/23 09:15:55;;;;;;;;;16.75;16.25;;;;;18.88;100.00;101785.41;4919154;28;45357;-73
2021/06/23 09:18:24;;;;;;;;;16.75;15.25;;;;;18.98;100.00;101802.72;4920518;28;45404;-73
2021/06/23 09:20:56;;;;;;;;;16.00;15.00;;;;;18.87;100.00;101774.88;4920175;28;46444;-73
2021/06/23 09:23:57;;;;;;;;;17.75;15.00;;;;;18.96;100.00;101798.38;4920304;28;45432;-74
2021/06/23 09:26:27;;;;;;;;;17.25;16.25;;;;;18.96;100.00;101795.75;4920332;28;45490;-73
2021/06/23 09:29:15;;;;;;;;;16.50;16.00;;;;;19.02;100.00;101803.50;4920411;28;45347;-73
2021/06/23 09:32:03;;;;;;;;;19.00;17.25;;;;;19.06;100.00;101806.91;4920051;28;45568;-73
2021/06/23 09:34:42;;;;;;;;;16.75;14.00;;;;;19.02;100.00;101798.22;4919898;28;45374;-73
2021/06/23 09:40:17;;;;;;;;;16.25;15.25;;;;;19.26;100.00;101809.78;4919998;28;45412;-73
2021/06/23 09:42:48;;;;;;;;;13.75;12.75;;;;;19.29;100.00;101807.03;4919964;28;45709;-72
2021/06/23 09:45:15;;;;;;;;;16.25;15.00;;;;;19.23;100.00;101797.47;4919850;28;45348;-73
2021/06/23 09:47:43;;;;;;;;;17.25;16.00;;;;;19.22;100.00;101786.94;4920038;28;45408;-72
2021/06/23 09:50:11;;;;;;;;;15.00;14.25;;;;;19.24;100.00;101801.88;4920076;28;45202;-72
2021/06/23 09:55:58;;;;;;;;;14.50;14.00;;;;;19.25;100.00;101811.56;4919533;28;45584;-72
2021/06/23 09:58:26;;;;;;;;;17.75;16.00;;;;;19.26;100.00;101802.69;4919812;28;45301;-73
2021/06/23 10:01:00;;;;;;;;;19.25;18.75;;;;;19.33;100.00;101806.00;4920091;28;45427;-73
2021/06/23 10:03:28;;;;;;;;;14.00;13.00;;;;;19.36;100.00;101805.03;4919642;28;46303;-72
2021/06/23 10:05:54;;;;;;;;;19.75;17.00;;;;;19.32;100.00;101798.97;4919486;28;45960;-73
2021/06/23 10:11:42;;;;;;;;;20.00;17.75;;;;;19.46;100.00;101796.72;4918643;28;45360;-73
2021/06/23 10:14:09;;;;;;;;;15.50;15.00;;;;;19.41;100.00;101789.84;4918853;28;47156;-73
2021/06/23 10:16:35;;;;;;;;;19.00;17.75;;;;;19.54;100.00;101793.84;4918792;28;45340;-73
2021/06/23 10:19:02;;;;;;;;;15.25;15.25;;;;;19.60;100.00;101795.41;4918711;28;45580;-72
2021/06/23 10:21:30;;;;;;;;;19.25;16.25;;;;;19.71;100.00;101802.06;4919312;28;45547;-73
2021/06/23 10:27:19;;;;;;;;;15.50;14.25;;;;;19.73;100.00;101810.84;4918892;28;45318;-73
2021/06/23 10:29:46;;;;;;;;;17.75;15.25;;;;;19.73;100.00;101799.38;4918923;28;45340;-72
2021/06/23 10:32:11;;;;;;;;;17.00;16.00;;;;;19.79;100.00;101810.59;4919006;28;45502;-71
2021/06/23 10:34:37;;;;;;;;;19.00;18.75;;;;;19.73;100.00;101791.41;4918853;28;45484;-71
2021/06/23 10:37:03;;;;;;;;;16.25;16.00;;;;;19.83;100.00;101811.34;4918839;28;45566;-72
2021/06/23 10:42:50;;;;;;;;;17.00;15.50;;;;;19.83;100.00;101817.53;4918806;28;45506;-71
2021/06/23 10:45:16;;;;;;;;;16.50;16.00;;;;;19.82;100.00;101818.44;4918664;28;45452;-73
2021/06/23 10:47:46;;;;;;;;;15.00;14.25;;;;;19.68;100.00;101798.63;4918480;28;45596;-73
2021/06/23 10:50:28;;;;;;;;;15.00;14.25;;;;;19.78;100.00;101830.06;4918910;28;45346;-71
2021/06/23 10:52:54;;;;;;;;;17.75;16.75;;;;;19.74;100.00;101824.94;4918924;28;45565;-72
2021/06/23 10:55:22;;;;;;;;;16.75;16.00;;;;;19.73;100.00;101828.50;4918738;28;45398;-72
2021/06/23 10:57:50;;;;;;;;;17.00;17.00;;;;;19.71;100.00;101828.56;4918632;28;45336;-72
2021/06/23 11:00:21;;;;;;;;;17.50;16.25;;;;;19.68;100.00;101833.94;4918768;28;45470;-75
2021/06/23 11:02:49;;;;;;;;;16.25;15.00;;;;;19.62;100.00;101831.53;4919030;28;45365;-72
2021/06/23 11:05:19;;;;;;;;;15.25;14.75;;;;;19.59;100.00;101831.63;4919048;28;46201;-72
2021/06/23 11:07:46;;;;;;;;;16.00;13.25;;;;;19.56;100.00;101837.03;4918938;28;45320;-72
2021/06/23 11:13:36;;;;;;;;;18.25;14.50;;;;;19.53;100.00;101839.75;4925925;28;45524;-73
2021/06/23 11:16:04;;;;;;;;;17.75;15.00;;;;;19.52;100.00;101832.72;4918846;28;46065;-72
2021/06/23 11:18:33;;;;;;;;;16.00;15.50;;;;;19.54;100.00;101841.53;4918773;28;45416;-72
2021/06/23 11:21:04;;;;;;;;;16.25;14.00;;;;;19.53;100.00;101848.59;4919072;28;45407;-72
2021/06/23 11:23:44;;;;;;;;;18.00;16.75;;;;;19.53;100.00;101853.91;4922351;28;45403;-72
2021/06/23 11:26:29;;;;;;;;;18.75;17.00;;;;;19.49;100.00;101856.69;4922093;28;45633;-72
2021/06/23 11:29:18;;;;;;;;;21.25;20.50;;;;;19.45;100.00;101855.03;4911580;28;45521;-72
2021/06/23 11:31:54;;;;;;;;;20.75;19.75;;;;;19.38;100.00;101856.16;4922130;28;45297;-72
2021/06/23 11:34:41;;;;;;;;;16.75;16.25;;;;;19.33;100.00;101850.16;4922449;28;45412;-72
2021/06/23 11:37:12;;;;;;;;;17.25;17.00;;;;;19.26;100.00;101850.34;4921560;28;46697;-72
2021/06/23 11:39:38;;;;;;;;;21.75;21.50;;;;;19.18;100.00;101841.78;4921685;28;45582;-72
2021/06/23 11:42:05;;;;;;;;;18.25;17.00;;;;;19.16;100.00;101861.28;4921994;28;45394;-73
2021/06/23 11:44:31;;;;;;;;;18.75;17.75;;;;;19.14;100.00;101861.34;4921920;28;45325;-73
2021/06/23 11:46:58;;;;;;;;;16.75;16.50;;;;;19.05;100.00;101848.41;4921559;28;46457;-72
2021/06/23 11:49:24;;;;;;;;;19.00;18.75;;;;;19.11;100.00;101860.56;4921614;28;45391;-73
2021/06/23 11:51:50;;;;;;;;;21.25;19.50;;;;;19.01;100.00;101852.06;4921462;28;45483;-72
2021/06/23 11:54:17;;;;;;;;;19.00;18.00;;;;;19.05;100.00;101853.69;4922121;28;45336;-72
2021/06/23 11:56:42;;;;;;;;;22.50;19.50;;;;;19.10;100.00;101850.91;4921532;28;46228;-71
2021/06/23 11:59:08;;;;;;;;;21.00;19.25;;;;;19.13;100.00;101853.44;4921113;28;45335;-72
2021/06/23 12:01:33;;;;;;;;;22.75;20.50;;;;;19.11;100.00;101861.44;4921796;28;45309;-72
2021/06/23 12:04:01;;;;;;;;;23.25;20.50;;;;;19.15;100.00;101860.41;4921553;28;45297;-72
2021/06/23 12:06:26;;;;;;;;;21.00;20.25;;;;;19.17;100.00;101857.72;4935828;28;47075;-71
2021/06/23 12:08:52;;;;;;;;;20.50;19.00;;;;;19.16;100.00;101861.28;4921076;28;45476;-74
2021/06/23 12:11:17;;;;;;;;;19.50;18.75;;;;;19.09;100.00;101844.72;4921586;28;45325;-74
2021/06/23 12:13:44;;;;;;;;;24.25;20.00;;;;;19.12;100.00;101834.03;4921465;28;45396;-73
2021/06/23 12:16:09;;;;;;;;;25.00;23.00;;;;;19.15;100.00;101830.44;4919802;28;47431;-74
2021/06/23 12:18:35;;;;;;;;;20.25;18.75;;;;;19.26;100.00;101845.06;4921086;28;45505;-73
2021/06/23 12:21:00;;;;;;;;;21.00;20.75;;;;;19.34;100.00;101850.09;4921334;28;45374;-73
2021/06/23 12:23:25;;;;;;;;;23.75;20.50;;;;;19.33;100.00;101842.22;4921160;28;45583;-72
2021/06/23 12:25:51;;;;;;;;;19.00;18.00;;;;;19.40;100.00;101854.31;4921220;28;46440;-72
2021/06/23 12:28:17;;;;;;;;;22.25;20.25;;;;;19.41;100.00;101856.91;4920886;28;45503;-72
2021/06/23 12:30:44;;;;;;;;;23.75;22.50;;;;;19.39;100.00;101849.94;4921246;28;45295;-72
2021/06/23 12:33:12;;;;;;;;;27.00;23.25;;;;;19.33;100.00;101848.38;4920834;28;45471;-71
2021/06/23 12:35:43;;;;;;;;;23.25;21.25;;;;;19.39;100.00;101861.41;4920711;28;47439;-71
2021/06/23 12:38:15;;;;;;;;;26.00;23.25;;;;;19.38;100.00;101861.44;4921060;28;45424;-72
2021/06/23 12:44:02;;;;;;;;;22.50;19.50;;;;;19.33;100.00;101850.16;4920875;28;45769;-70